createdAt,value
2019-03-26T00:01:28.292Z,1.40
2019-03-26T00:04:05.883Z,1.10
2019-03-26T00:06:31.939Z,1.40
2019-03-26T00:09:02.947Z,1.30
2019-03-26T00:11:33.971Z,1.53
2019-03-26T00:14:05.105Z,1.10
2019-03-26T00:16:36.175Z,0.97
2019-03-26T00:19:10.236Z,1.30
2019-03-26T00:21:42.686Z,1.27
2019-03-26T00:24:13.642Z,1.13
2019-03-26T00:26:45.470Z,1.40
2019-03-26T00:29:16.535Z,1.30
2019-03-26T00:31:47.564Z,1.13
2019-03-26T00:34:19.712Z,1.20
2019-03-26T00:36:51.326Z,1.17
2019-03-26T00:39:22.290Z,1.20
2019-03-26T00:41:54.098Z,1.10
2019-03-26T00:44:25.175Z,1.20
2019-03-26T00:46:56.132Z,1.20
2019-03-26T00:49:27.150Z,0.93
2019-03-26T00:51:58.636Z,1.03
2019-03-26T00:54:29.686Z,1.37
2019-03-26T00:57:00.859Z,1.13
2019-03-26T00:59:31.922Z,1.20
2019-03-26T01:02:03.291Z,1.40
2019-03-26T01:04:35.067Z,1.20
2019-03-26T01:07:06.079Z,0.90
2019-03-26T01:09:37.118Z,1.00
2019-03-26T01:12:08.217Z,1.37
2019-03-26T01:14:39.275Z,1.30
2019-03-26T01:17:10.452Z,1.30
2019-03-26T01:19:41.677Z,1.40
2019-03-26T01:22:12.750Z,1.50
2019-03-26T01:24:44.230Z,1.37
2019-03-26T01:27:15.251Z,1.80
2019-03-26T01:29:46.711Z,1.07
2019-03-26T01:32:17.766Z,1.40
2019-03-26T01:34:48.799Z,1.80
2019-03-26T01:37:19.826Z,1.90
2019-03-26T01:39:50.893Z,1.90
2019-03-26T01:42:21.884Z,1.80
2019-03-26T01:44:53.610Z,2.10
2019-03-26T01:47:24.653Z,2.10
2019-03-26T01:49:55.698Z,2.05
2019-03-26T01:52:26.785Z,2.23
2019-03-26T01:54:57.803Z,2.27
2019-03-26T01:57:28.934Z,2.37
2019-03-26T02:00:00.334Z,2.60
2019-03-26T02:02:31.354Z,2.40
2019-03-26T02:05:03.664Z,2.10
2019-03-26T02:07:38.814Z,2.70
2019-03-26T02:10:08.783Z,2.77
2019-03-26T02:12:39.832Z,2.37
2019-03-26T02:15:17.251Z,2.67
2019-03-26T02:17:49.840Z,2.20
2019-03-26T02:20:20.944Z,2.60
2019-03-26T02:22:51.966Z,2.57
2019-03-26T02:25:23.392Z,2.67
2019-03-26T02:27:54.495Z,2.27
2019-03-26T02:30:25.556Z,3.20
2019-03-26T02:32:56.864Z,2.53
2019-03-26T02:35:27.914Z,2.87
2019-03-26T02:37:58.919Z,2.83
2019-03-26T02:40:29.949Z,2.80
2019-03-26T02:43:00.967Z,3.07
2019-03-26T02:45:32.059Z,3.43
2019-03-26T02:48:03.116Z,3.47
2019-03-26T02:50:34.963Z,3.00
2019-03-26T02:53:08.719Z,3.20
2019-03-26T02:55:38.881Z,3.70
2019-03-26T02:58:09.891Z,3.77
2019-03-26T03:00:40.936Z,3.53
2019-03-26T03:03:11.967Z,4.07
2019-03-26T03:05:43.004Z,3.60
2019-03-26T03:08:14.016Z,4.13
2019-03-26T03:10:49.479Z,3.70
2019-03-26T03:13:23.826Z,4.17
2019-03-26T03:15:55.739Z,3.40
2019-03-26T03:18:26.784Z,3.67
2019-03-26T03:20:58.751Z,3.93
2019-03-26T03:23:30.357Z,3.60
2019-03-26T03:26:01.374Z,3.40
2019-03-26T03:28:32.428Z,3.30
2019-03-26T03:31:04.088Z,2.93
2019-03-26T03:33:35.893Z,3.17
2019-03-26T03:36:06.974Z,2.67
2019-03-26T03:38:41.318Z,3.07
2019-03-26T03:41:11.584Z,2.67
2019-03-26T03:43:42.629Z,2.30
2019-03-26T03:46:14.185Z,2.60
2019-03-26T03:48:46.115Z,2.50
2019-03-26T03:51:20.371Z,2.93
2019-03-26T03:53:51.540Z,2.90
2019-03-26T03:56:25.548Z,3.20
2019-03-26T03:58:58.475Z,2.97
2019-03-26T04:01:29.519Z,3.37
2019-03-26T04:04:00.591Z,2.47
2019-03-26T04:06:31.752Z,3.00
2019-03-26T04:09:03.160Z,2.75
2019-03-26T04:11:34.197Z,2.50
2019-03-26T04:14:05.677Z,2.50
2019-03-26T04:16:36.703Z,2.30
2019-03-26T04:19:07.776Z,2.60
2019-03-26T04:21:38.778Z,2.40
2019-03-26T04:24:09.826Z,2.80
2019-03-26T04:26:40.834Z,3.37
2019-03-26T04:29:12.005Z,2.23
2019-03-26T04:31:43.039Z,2.37
2019-03-26T04:34:14.167Z,2.17
2019-03-26T04:36:45.258Z,2.67
2019-03-26T04:39:16.273Z,2.60
2019-03-26T04:41:47.293Z,2.47
2019-03-26T04:44:18.364Z,2.23
2019-03-26T04:46:49.450Z,2.20
2019-03-26T04:49:20.523Z,2.43
2019-03-26T04:51:51.527Z,2.70
2019-03-26T04:54:22.670Z,2.60
2019-03-26T04:56:54.711Z,2.25
2019-03-26T04:59:25.793Z,2.40
2019-03-26T05:01:56.807Z,2.33
2019-03-26T05:04:27.855Z,2.43
2019-03-26T05:06:59.431Z,2.20
2019-03-26T05:09:30.439Z,2.63
2019-03-26T05:12:01.486Z,2.10
2019-03-26T05:14:32.498Z,2.23
2019-03-26T05:17:03.607Z,2.03
2019-03-26T05:19:34.666Z,2.63
2019-03-26T05:22:05.695Z,2.40
2019-03-26T05:24:36.763Z,2.10
2019-03-26T05:27:07.790Z,2.00
2019-03-26T05:29:38.815Z,2.63
2019-03-26T05:32:11.049Z,2.33
2019-03-26T05:34:42.891Z,2.13
2019-03-26T05:37:13.894Z,2.13
2019-03-26T05:39:44.961Z,2.10
2019-03-26T05:42:16.342Z,2.40
2019-03-26T05:44:47.540Z,2.70
2019-03-26T05:47:18.630Z,1.93
2019-03-26T05:49:49.651Z,1.87
2019-03-26T05:52:20.783Z,1.70
2019-03-26T05:54:52.202Z,1.93
2019-03-26T05:57:23.293Z,1.80
2019-03-26T05:59:55.728Z,1.67
2019-03-26T06:02:26.818Z,1.33
2019-03-26T06:04:58.780Z,1.27
2019-03-26T06:07:31.295Z,1.30
2019-03-26T06:10:02.699Z,1.40
2019-03-26T06:12:33.830Z,2.40
2019-03-26T06:15:05.460Z,1.50
2019-03-26T06:17:37.051Z,1.20
2019-03-26T06:20:08.548Z,1.27
2019-03-26T06:22:39.591Z,1.30
2019-03-26T06:25:11.019Z,1.40
2019-03-26T06:27:42.059Z,1.10
2019-03-26T06:30:13.703Z,0.77
2019-03-26T06:32:45.097Z,1.20
2019-03-26T06:35:16.943Z,0.97
2019-03-26T06:37:47.996Z,1.30
2019-03-26T06:40:19.199Z,1.33
2019-03-26T06:42:50.731Z,1.30
2019-03-26T06:45:21.810Z,1.00
2019-03-26T06:47:52.893Z,1.30
2019-03-26T06:50:24.396Z,0.90
2019-03-26T06:52:55.832Z,0.80
2019-03-26T06:55:27.334Z,1.00
2019-03-26T06:57:58.360Z,0.97
2019-03-26T07:00:33.119Z,0.97
2019-03-26T07:03:06.059Z,1.00
2019-03-26T07:05:37.698Z,0.73
2019-03-26T07:08:09.214Z,1.10
2019-03-26T07:10:40.290Z,0.80
2019-03-26T07:13:11.330Z,0.97
2019-03-26T07:15:42.435Z,1.00
2019-03-26T07:18:13.517Z,0.83
2019-03-26T07:20:44.652Z,0.80
2019-03-26T07:23:15.738Z,0.83
2019-03-26T07:25:46.776Z,0.77
2019-03-26T07:28:18.248Z,0.80
2019-03-26T07:30:49.303Z,0.80
2019-03-26T07:33:20.371Z,0.60
2019-03-26T07:35:51.338Z,0.80
2019-03-26T07:38:22.396Z,1.00
2019-03-26T07:40:53.459Z,0.50
2019-03-26T07:43:24.551Z,0.70
2019-03-26T07:45:55.619Z,0.80
2019-03-26T07:48:26.674Z,0.80
2019-03-26T07:50:57.704Z,0.67
2019-03-26T07:53:28.795Z,0.70
2019-03-26T07:55:59.849Z,0.67
2019-03-26T07:58:33.248Z,0.70
2019-03-26T08:01:03.624Z,0.63
2019-03-26T08:03:34.921Z,0.70
2019-03-26T08:06:05.960Z,0.60
2019-03-26T08:08:36.989Z,0.80
2019-03-26T08:11:08.086Z,0.60
2019-03-26T08:13:41.075Z,0.80
2019-03-26T08:16:12.195Z,0.63
2019-03-26T08:18:43.227Z,0.50
2019-03-26T08:21:15.111Z,0.67
2019-03-26T08:23:46.602Z,0.87
2019-03-26T08:26:18.139Z,0.53
2019-03-26T08:28:49.204Z,0.47
2019-03-26T08:31:20.274Z,0.70
2019-03-26T08:33:51.351Z,0.70
2019-03-26T08:36:22.866Z,0.50
2019-03-26T08:38:53.980Z,0.70
2019-03-26T08:41:25.035Z,0.50
2019-03-26T08:43:56.075Z,0.70
2019-03-26T08:46:27.160Z,0.57
2019-03-26T08:48:58.411Z,0.60
2019-03-26T08:51:29.551Z,0.70
2019-03-26T08:54:00.637Z,0.60
2019-03-26T08:56:32.095Z,0.47
2019-03-26T08:59:03.244Z,0.60
2019-03-26T09:01:35.635Z,0.40
2019-03-26T09:04:07.786Z,0.47
2019-03-26T09:06:40.201Z,0.53
2019-03-26T09:09:11.225Z,0.30
2019-03-26T09:11:42.272Z,0.50
2019-03-26T09:14:15.529Z,0.63
2019-03-26T09:16:46.567Z,0.50
2019-03-26T09:19:18.161Z,0.50
2019-03-26T09:21:49.687Z,0.40
2019-03-26T09:24:20.739Z,0.70
2019-03-26T09:26:53.336Z,0.30
2019-03-26T09:29:24.406Z,0.60
2019-03-26T09:31:56.387Z,0.50
2019-03-26T09:34:27.843Z,0.57
2019-03-26T09:36:58.902Z,0.50
2019-03-26T09:39:29.839Z,0.43
2019-03-26T09:42:01.869Z,0.57
2019-03-26T09:44:33.316Z,0.60
2019-03-26T09:47:15.549Z,0.30
2019-03-26T09:49:37.421Z,0.57
2019-03-26T09:52:08.495Z,0.63
2019-03-26T09:54:39.550Z,0.43
2019-03-26T09:57:11.048Z,0.50
2019-03-26T09:59:42.123Z,0.63
2019-03-26T10:02:13.176Z,0.67
2019-03-26T10:04:44.242Z,0.70
2019-03-26T10:07:21.252Z,0.63
2019-03-26T10:09:48.546Z,0.50
2019-03-26T10:12:19.931Z,0.60
2019-03-26T10:14:51.003Z,0.60
2019-03-26T10:17:22.143Z,0.63
2019-03-26T10:19:53.420Z,0.70
2019-03-26T10:22:24.477Z,0.40
2019-03-26T10:24:56.453Z,0.90
2019-03-26T10:27:27.506Z,0.47
2019-03-26T10:29:58.594Z,0.40
2019-03-26T10:32:30.118Z,0.40
2019-03-26T10:35:01.198Z,0.60
2019-03-26T10:37:32.270Z,0.50
2019-03-26T10:40:03.632Z,0.53
2019-03-26T10:42:34.654Z,0.47
2019-03-26T10:45:06.003Z,0.53
2019-03-26T10:47:37.098Z,0.40
2019-03-26T10:50:08.483Z,0.53
2019-03-26T10:52:39.505Z,0.50
2019-03-26T10:55:10.959Z,0.30
2019-03-26T10:57:42.439Z,0.70
2019-03-26T11:00:13.483Z,0.53
2019-03-26T11:02:44.576Z,0.50
2019-03-26T11:05:16.071Z,0.50
2019-03-26T11:07:47.477Z,0.40
2019-03-26T11:10:18.542Z,0.53
2019-03-26T11:12:49.635Z,0.50
2019-03-26T11:15:20.709Z,0.40
2019-03-26T11:17:51.752Z,0.43
2019-03-26T11:20:23.091Z,0.47
2019-03-26T11:22:57.303Z,0.40
2019-03-26T11:25:28.382Z,0.50
2019-03-26T11:27:59.430Z,0.60
2019-03-26T11:30:30.499Z,0.40
2019-03-26T11:33:01.953Z,0.50
2019-03-26T11:35:33.043Z,0.60
2019-03-26T11:38:04.210Z,0.80
2019-03-26T11:40:35.263Z,0.37
2019-03-26T11:43:06.327Z,0.30
2019-03-26T11:45:37.414Z,0.40
2019-03-26T11:48:08.498Z,0.57
2019-03-26T11:50:39.531Z,0.53
2019-03-26T11:53:10.580Z,0.57
2019-03-26T11:55:41.659Z,0.40
2019-03-26T11:58:15.781Z,0.60
2019-03-26T12:00:46.878Z,0.40
2019-03-26T12:03:18.817Z,0.40
2019-03-26T12:05:50.813Z,0.43
2019-03-26T12:08:22.982Z,0.60
2019-03-26T12:10:54.079Z,0.47
2019-03-26T12:13:25.131Z,0.60
2019-03-26T12:15:56.924Z,0.33
2019-03-26T12:18:28.118Z,0.50
2019-03-26T12:21:00.140Z,0.50
2019-03-26T12:23:31.214Z,0.60
2019-03-26T12:26:02.247Z,0.43
2019-03-26T12:28:33.291Z,0.50
2019-03-26T12:31:04.362Z,0.50
2019-03-26T12:33:35.403Z,0.50
2019-03-26T12:36:06.554Z,0.60
2019-03-26T12:38:37.595Z,0.63
2019-03-26T12:41:09.154Z,0.30
2019-03-26T12:43:40.224Z,0.40
2019-03-26T12:46:11.320Z,0.43
2019-03-26T12:48:43.468Z,0.50
2019-03-26T12:51:14.947Z,0.37
2019-03-26T12:53:46.157Z,0.50
2019-03-26T12:56:17.187Z,0.30
2019-03-26T12:58:49.203Z,0.40
2019-03-26T13:01:20.695Z,0.53
2019-03-26T13:03:51.780Z,0.50
2019-03-26T13:06:22.882Z,0.70
2019-03-26T13:08:54.395Z,0.40
2019-03-26T13:11:25.527Z,0.30
2019-03-26T13:13:57.388Z,0.50
2019-03-26T13:16:28.472Z,0.60
2019-03-26T13:18:59.530Z,0.63
2019-03-26T13:21:30.511Z,0.87
2019-03-26T13:24:01.503Z,0.60
2019-03-26T13:26:32.766Z,0.50
2019-03-26T13:29:03.820Z,0.50
2019-03-26T13:31:34.866Z,0.60
2019-03-26T13:34:06.051Z,0.50
2019-03-26T13:36:37.075Z,0.60
2019-03-26T13:39:10.304Z,0.33
2019-03-26T13:41:41.326Z,0.50
2019-03-26T13:44:12.414Z,0.50
2019-03-26T13:46:43.486Z,0.40
2019-03-26T13:49:14.695Z,0.50
2019-03-26T13:51:45.755Z,0.47
2019-03-26T13:54:16.798Z,0.53
2019-03-26T13:56:47.907Z,0.50
2019-03-26T13:59:19.972Z,0.40
2019-03-26T14:01:51.039Z,0.57
2019-03-26T14:04:22.414Z,0.53
2019-03-26T14:06:53.491Z,0.50
2019-03-26T14:09:25.097Z,0.33
2019-03-26T14:11:57.711Z,0.50
2019-03-26T14:14:28.956Z,1.00
2019-03-26T14:17:00.852Z,0.60
2019-03-26T14:19:31.926Z,0.93
2019-03-26T14:22:02.981Z,0.60
2019-03-26T14:24:34.419Z,0.53
2019-03-26T14:27:05.546Z,0.60
2019-03-26T14:29:39.508Z,0.50
2019-03-26T14:32:11.001Z,0.57
2019-03-26T14:34:42.068Z,0.50
2019-03-26T14:37:13.161Z,0.40
2019-03-26T14:39:44.248Z,0.70
2019-03-26T14:42:15.323Z,0.50
2019-03-26T14:44:46.432Z,0.57
2019-03-26T14:47:17.447Z,0.57
2019-03-26T14:49:48.515Z,0.50
2019-03-26T14:52:19.623Z,0.50
2019-03-26T14:54:50.679Z,0.43
2019-03-26T14:57:24.497Z,0.40
2019-03-26T14:59:55.534Z,0.40
2019-03-26T15:02:26.602Z,0.50
2019-03-26T15:04:58.034Z,0.50
2019-03-26T15:07:29.115Z,0.70
2019-03-26T15:10:00.646Z,0.60
2019-03-26T15:12:32.030Z,0.60
2019-03-26T15:15:03.843Z,0.60
2019-03-26T15:17:34.891Z,0.70
2019-03-26T15:20:06.711Z,0.63
2019-03-26T15:22:37.778Z,0.63
2019-03-26T15:25:09.206Z,0.40
2019-03-26T15:27:40.179Z,0.60
2019-03-26T15:30:12.063Z,0.50
2019-03-26T15:32:43.142Z,0.50
2019-03-26T15:35:14.279Z,0.50
2019-03-26T15:37:45.330Z,0.60
2019-03-26T15:40:16.516Z,0.57
2019-03-26T15:42:47.588Z,0.70
2019-03-26T15:45:18.607Z,0.57
2019-03-26T15:47:50.069Z,0.60
2019-03-26T15:50:41.310Z,0.70
2019-03-26T15:53:12.378Z,0.60
2019-03-26T15:55:43.916Z,0.60
2019-03-26T15:58:19.505Z,0.60
2019-03-26T16:00:50.563Z,0.60
2019-03-26T16:03:22.613Z,0.60
2019-03-26T16:05:53.746Z,0.70
2019-03-26T16:08:24.794Z,0.60
2019-03-26T16:10:55.903Z,0.70
2019-03-26T16:13:26.997Z,0.80
2019-03-26T16:15:59.662Z,0.60
2019-03-26T16:18:30.702Z,0.60
2019-03-26T16:21:01.780Z,0.40
2019-03-26T16:23:32.818Z,0.43
2019-03-26T16:26:04.208Z,0.60
2019-03-26T16:28:35.655Z,0.60
2019-03-26T16:31:07.726Z,0.50
2019-03-26T16:33:42.073Z,0.60
2019-03-26T16:36:13.079Z,0.60
2019-03-26T16:38:44.119Z,0.60
2019-03-26T16:41:15.161Z,0.70
2019-03-26T16:43:46.246Z,0.53
2019-03-26T16:46:17.405Z,0.30
2019-03-26T16:48:48.418Z,0.63
2019-03-26T16:51:19.468Z,0.53
2019-03-26T16:53:50.531Z,0.70
2019-03-26T16:56:21.562Z,0.60
2019-03-26T16:58:52.642Z,0.70
2019-03-26T17:01:27.730Z,1.23
2019-03-26T17:03:58.985Z,0.85
2019-03-26T17:06:30.028Z,0.57
2019-03-26T17:09:01.128Z,0.57
2019-03-26T17:11:32.148Z,0.77
2019-03-26T17:14:03.175Z,0.80
2019-03-26T17:16:34.222Z,0.70
2019-03-26T17:19:05.773Z,0.87
2019-03-26T17:21:37.683Z,0.63
2019-03-26T17:24:08.777Z,1.63
2019-03-26T17:26:40.151Z,0.93
2019-03-26T17:29:11.230Z,0.50
2019-03-26T17:31:42.297Z,0.60
2019-03-26T17:34:13.312Z,0.67
2019-03-26T17:36:44.386Z,0.50
2019-03-26T17:39:15.422Z,0.70
2019-03-26T17:41:46.502Z,1.10
2019-03-26T17:44:17.567Z,0.70
2019-03-26T17:46:48.642Z,0.63
2019-03-26T17:49:19.732Z,0.60
2019-03-26T17:51:50.843Z,1.10
2019-03-26T17:54:22.307Z,1.30
2019-03-26T17:56:53.363Z,0.50
2019-03-26T17:59:24.658Z,1.47
2019-03-26T18:01:55.811Z,0.73
2019-03-26T18:04:28.059Z,0.73
2019-03-26T18:06:59.227Z,0.70
2019-03-26T18:09:30.323Z,1.43
2019-03-26T18:12:02.207Z,0.97
2019-03-26T18:14:33.303Z,0.90
2019-03-26T18:17:04.786Z,0.90
2019-03-26T18:19:36.944Z,2.00
2019-03-26T18:22:08.049Z,0.83
2019-03-26T18:24:39.090Z,1.00
2019-03-26T18:27:10.163Z,0.80
2019-03-26T18:29:41.199Z,0.93
2019-03-26T18:32:12.940Z,0.95
2019-03-26T18:34:44.009Z,1.33
2019-03-26T18:37:15.219Z,1.23
2019-03-26T18:39:46.383Z,0.70
2019-03-26T18:42:17.440Z,0.70
2019-03-26T18:44:48.523Z,0.70
2019-03-26T18:47:20.875Z,0.80
2019-03-26T18:49:51.967Z,0.87
2019-03-26T18:52:23.026Z,0.53
2019-03-26T18:54:54.079Z,0.90
2019-03-26T18:57:25.159Z,1.00
2019-03-26T18:59:56.244Z,0.83
2019-03-26T19:02:27.318Z,0.70
2019-03-26T19:04:58.744Z,0.60
2019-03-26T19:07:30.342Z,0.70
2019-03-26T19:10:02.558Z,0.80
2019-03-26T19:12:35.597Z,1.00
2019-03-26T19:15:07.171Z,1.30
2019-03-26T19:17:38.220Z,1.83
2019-03-26T19:20:09.431Z,1.73
2019-03-26T19:22:40.543Z,0.77
2019-03-26T19:25:11.626Z,0.95
2019-03-26T19:27:42.728Z,0.70
2019-03-26T19:30:14.501Z,0.60
2019-03-26T19:32:45.591Z,0.93
2019-03-26T19:35:16.651Z,0.90
2019-03-26T19:37:48.221Z,0.97
2019-03-26T19:40:19.774Z,0.97
2019-03-26T19:42:51.232Z,0.60
2019-03-26T19:45:22.705Z,1.80
2019-03-26T19:47:54.435Z,0.93
2019-03-26T19:50:25.488Z,0.90
2019-03-26T19:52:56.559Z,0.90
2019-03-26T19:55:27.586Z,1.20
2019-03-26T19:57:58.829Z,1.30
2019-03-26T20:00:29.935Z,0.70
2019-03-26T20:03:01.019Z,0.80
2019-03-26T20:05:35.660Z,0.80
2019-03-26T20:08:06.963Z,1.17
2019-03-26T20:10:38.071Z,1.10
2019-03-26T20:13:09.131Z,1.70
2019-03-26T20:15:40.187Z,1.60
2019-03-26T20:18:11.440Z,1.50
2019-03-26T20:20:43.690Z,1.97
2019-03-26T20:23:14.813Z,1.60
2019-03-26T20:25:45.871Z,1.50
2019-03-26T20:28:17.678Z,1.50
2019-03-26T20:30:48.765Z,1.30
2019-03-26T20:33:20.603Z,1.03
2019-03-26T20:35:52.226Z,1.10
2019-03-26T20:38:23.743Z,1.67
2019-03-26T20:40:54.787Z,0.80
2019-03-26T20:43:36.804Z,1.00
2019-03-26T20:46:00.189Z,1.20
2019-03-26T20:48:31.358Z,1.20
2019-03-26T20:51:02.404Z,1.10
2019-03-26T20:53:33.491Z,0.80
2019-03-26T20:56:04.574Z,0.90
2019-03-26T20:58:36.073Z,0.90
2019-03-26T21:01:08.082Z,0.80
2019-03-26T21:03:40.300Z,0.80
2019-03-26T21:06:11.455Z,0.80
2019-03-26T21:08:42.911Z,0.70
2019-03-26T21:11:14.528Z,0.80
2019-03-26T21:13:50.744Z,0.90
2019-03-26T21:16:18.287Z,1.00
2019-03-26T21:18:49.749Z,1.03
2019-03-26T21:21:21.343Z,0.90
2019-03-26T21:23:52.414Z,0.70
2019-03-26T21:26:24.606Z,0.97
2019-03-26T21:28:55.680Z,0.80
2019-03-26T21:31:26.723Z,0.87
2019-03-26T21:33:57.746Z,0.70
2019-03-26T21:36:29.245Z,1.10
2019-03-26T21:39:00.479Z,0.90
2019-03-26T21:41:31.510Z,0.90
2019-03-26T21:44:04.646Z,0.80
2019-03-26T21:46:36.099Z,1.10
2019-03-26T21:49:07.156Z,0.80
2019-03-26T21:51:38.941Z,0.90
2019-03-26T21:54:10.827Z,0.73
2019-03-26T21:56:42.871Z,1.00
2019-03-26T21:59:14.428Z,1.12
2019-03-26T22:01:45.491Z,1.33
2019-03-26T22:04:16.961Z,1.00
2019-03-26T22:06:47.927Z,1.00
2019-03-26T22:09:19.527Z,1.33
2019-03-26T22:11:50.603Z,0.83
2019-03-26T22:14:21.672Z,0.80
2019-03-26T22:16:52.727Z,0.97
2019-03-26T22:19:28.882Z,1.03
2019-03-26T22:21:58.463Z,1.10
2019-03-26T22:24:30.196Z,1.27
2019-03-26T22:27:01.859Z,1.03
2019-03-26T22:29:33.689Z,1.10
2019-03-26T22:32:05.182Z,1.13
2019-03-26T22:34:36.203Z,1.20
2019-03-26T22:37:07.241Z,1.10
2019-03-26T22:39:38.303Z,1.10
2019-03-26T22:42:09.351Z,1.10
2019-03-26T22:44:40.362Z,1.00
2019-03-26T22:47:11.775Z,1.00
2019-03-26T22:49:42.826Z,0.90
2019-03-26T22:52:13.876Z,1.27
2019-03-26T22:54:44.935Z,1.20
2019-03-26T22:57:16.802Z,1.00
2019-03-26T22:59:47.829Z,0.97
2019-03-26T23:02:18.859Z,0.90
2019-03-26T23:04:50.133Z,1.17
2019-03-26T23:07:21.180Z,1.00
2019-03-26T23:09:52.226Z,1.00
2019-03-26T23:12:23.249Z,1.40
2019-03-26T23:14:54.311Z,1.10
2019-03-26T23:17:25.334Z,1.13
2019-03-26T23:19:56.326Z,1.10
2019-03-26T23:22:27.398Z,1.30
2019-03-26T23:24:58.442Z,0.93
2019-03-26T23:27:29.874Z,1.03
2019-03-26T23:30:00.970Z,1.10
2019-03-26T23:32:32.015Z,1.00
2019-03-26T23:35:03.055Z,1.00
2019-03-26T23:37:34.611Z,1.10
2019-03-26T23:40:05.983Z,0.90
2019-03-26T23:42:37.226Z,0.87
2019-03-26T23:45:10.307Z,1.40
2019-03-26T23:47:41.343Z,1.10
2019-03-26T23:50:12.674Z,0.90
2019-03-26T23:52:43.739Z,1.00
2019-03-26T23:55:15.086Z,0.90
2019-03-26T23:57:47.666Z,1.20
